sensor_id;sensor_type;location;lat;lon;timestamp;temperature;humidity
33803;DHT22;20110;53.120;5.786;2023-09-07T00:00:22;16.30;99.90
33803;DHT22;20110;53.120;5.786;2023-09-07T00:02:48;16.10;99.90
33803;DHT22;20110;53.120;5.786;2023-09-07T00:05:14;16.00;99.90
33803;DHT22;20110;53.120;5.786;2023-09-07T00:07:40;16.00;99.90
33803;DHT22;20110;53.120;5.786;2023-09-07T00:10:06;15.90;99.90
33803;DHT22;20110;53.120;5.786;2023-09-07T00:12:33;15.90;99.90
33803;DHT22;20110;53.120;5.786;2023-09-07T00:14:59;15.80;99.90
33803;DHT22;20110;53.120;5.786;2023-09-07T00:17:25;15.90;99.90
33803;DHT22;20110;53.120;5.786;2023-09-07T00:19:51;15.80;99.90
33803;DHT22;20110;53.120;5.786;2023-09-07T00:22:18;15.80;99.90
33803;DHT22;20110;53.120;5.786;2023-09-07T00:24:44;15.80;99.90
33803;DHT22;20110;53.120;5.786;2023-09-07T00:27:10;15.70;99.90
33803;DHT22;20110;53.120;5.786;2023-09-07T00:29:37;15.70;99.90
33803;DHT22;20110;53.120;5.786;2023-09-07T00:32:04;15.60;99.90
33803;DHT22;20110;53.120;5.786;2023-09-07T00:34:30;15.60;99.90
33803;DHT22;20110;53.120;5.786;2023-09-07T00:36:57;15.60;99.90
33803;DHT22;20110;53.120;5.786;2023-09-07T00:39:23;15.60;99.90
33803;DHT22;20110;53.120;5.786;2023-09-07T00:41:49;15.60;99.90
33803;DHT22;20110;53.120;5.786;2023-09-07T00:44:15;15.50;99.90
33803;DHT22;20110;53.120;5.786;2023-09-07T00:46:42;15.50;99.90
33803;DHT22;20110;53.120;5.786;2023-09-07T00:49:11;15.50;99.90
33803;DHT22;20110;53.120;5.786;2023-09-07T00:51:37;15.50;99.90
33803;DHT22;20110;53.120;5.786;2023-09-07T00:54:03;15.50;99.90
33803;DHT22;20110;53.120;5.786;2023-09-07T00:56:29;15.50;99.90
33803;DHT22;20110;53.120;5.786;2023-09-07T00:58:56;15.50;99.90
33803;DHT22;20110;53.120;5.786;2023-09-07T01:01:26;15.50;99.90
33803;DHT22;20110;53.120;5.786;2023-09-07T01:03:52;15.40;99.90
33803;DHT22;20110;53.120;5.786;2023-09-07T01:06:22;15.40;99.90
33803;DHT22;20110;53.120;5.786;2023-09-07T01:08:56;15.40;99.90
33803;DHT22;20110;53.120;5.786;2023-09-07T01:11:25;15.30;99.90
33803;DHT22;20110;53.120;5.786;2023-09-07T01:13:52;15.30;99.90
33803;DHT22;20110;53.120;5.786;2023-09-07T01:16:20;15.30;99.90
33803;DHT22;20110;53.120;5.786;2023-09-07T01:18:47;15.30;99.90
33803;DHT22;20110;53.120;5.786;2023-09-07T01:21:13;15.20;99.90
33803;DHT22;20110;53.120;5.786;2023-09-07T01:23:43;15.10;99.90
33803;DHT22;20110;53.120;5.786;2023-09-07T01:26:11;15.00;99.90
33803;DHT22;20110;53.120;5.786;2023-09-07T01:28:37;14.90;99.90
33803;DHT22;20110;53.120;5.786;2023-09-07T01:31:04;14.90;99.90
33803;DHT22;20110;53.120;5.786;2023-09-07T01:33:31;14.80;99.90
33803;DHT22;20110;53.120;5.786;2023-09-07T01:35:57;14.80;99.90
33803;DHT22;20110;53.120;5.786;2023-09-07T01:38:23;14.70;99.90
33803;DHT22;20110;53.120;5.786;2023-09-07T01:40:49;14.70;99.90
33803;DHT22;20110;53.120;5.786;2023-09-07T01:43:15;14.60;99.90
33803;DHT22;20110;53.120;5.786;2023-09-07T01:45:40;14.60;99.90
33803;DHT22;20110;53.120;5.786;2023-09-07T01:48:09;14.60;99.90
33803;DHT22;20110;53.120;5.786;2023-09-07T01:50:36;14.60;99.90
33803;DHT22;20110;53.120;5.786;2023-09-07T01:53:03;14.60;99.90
33803;DHT22;20110;53.120;5.786;2023-09-07T01:55:30;14.60;99.90
33803;DHT22;20110;53.120;5.786;2023-09-07T01:57:57;14.60;99.90
33803;DHT22;20110;53.120;5.786;2023-09-07T02:00:22;14.60;99.90
33803;DHT22;20110;53.120;5.786;2023-09-07T02:02:48;14.50;99.90
33803;DHT22;20110;53.120;5.786;2023-09-07T02:05:14;14.50;99.90
33803;DHT22;20110;53.120;5.786;2023-09-07T02:07:40;14.40;99.90
33803;DHT22;20110;53.120;5.786;2023-09-07T02:10:06;14.40;99.90
33803;DHT22;20110;53.120;5.786;2023-09-07T02:12:33;14.30;99.90
33803;DHT22;20110;53.120;5.786;2023-09-07T02:15:01;14.20;99.90
33803;DHT22;20110;53.120;5.786;2023-09-07T02:17:28;14.10;99.90
33803;DHT22;20110;53.120;5.786;2023-09-07T02:19:56;14.10;99.90
33803;DHT22;20110;53.120;5.786;2023-09-07T02:22:22;14.00;99.90
33803;DHT22;20110;53.120;5.786;2023-09-07T02:24:48;14.00;99.90
33803;DHT22;20110;53.120;5.786;2023-09-07T02:27:14;13.90;99.90
33803;DHT22;20110;53.120;5.786;2023-09-07T02:29:40;13.90;99.90
33803;DHT22;20110;53.120;5.786;2023-09-07T02:32:06;13.90;99.90
33803;DHT22;20110;53.120;5.786;2023-09-07T02:34:32;13.90;99.90
33803;DHT22;20110;53.120;5.786;2023-09-07T02:37:02;13.90;99.90
33803;DHT22;20110;53.120;5.786;2023-09-07T02:39:29;13.90;99.90
33803;DHT22;20110;53.120;5.786;2023-09-07T02:41:54;13.90;99.90
33803;DHT22;20110;53.120;5.786;2023-09-07T02:44:20;13.90;99.90
33803;DHT22;20110;53.120;5.786;2023-09-07T02:46:46;13.80;99.90
33803;DHT22;20110;53.120;5.786;2023-09-07T02:49:14;13.80;99.90
33803;DHT22;20110;53.120;5.786;2023-09-07T02:51:41;13.80;99.90
33803;DHT22;20110;53.120;5.786;2023-09-07T02:54:06;13.80;99.90
33803;DHT22;20110;53.120;5.786;2023-09-07T02:56:32;13.80;99.90
33803;DHT22;20110;53.120;5.786;2023-09-07T02:58:58;13.80;99.90
33803;DHT22;20110;53.120;5.786;2023-09-07T03:01:24;13.80;99.90
33803;DHT22;20110;53.120;5.786;2023-09-07T03:03:50;13.80;99.90
33803;DHT22;20110;53.120;5.786;2023-09-07T03:06:16;13.80;99.90
33803;DHT22;20110;53.120;5.786;2023-09-07T03:08:43;13.70;99.90
33803;DHT22;20110;53.120;5.786;2023-09-07T03:11:09;13.70;99.90
33803;DHT22;20110;53.120;5.786;2023-09-07T03:13:35;13.80;99.90
33803;DHT22;20110;53.120;5.786;2023-09-07T03:16:03;13.70;99.90
33803;DHT22;20110;53.120;5.786;2023-09-07T03:18:30;13.80;99.90
33803;DHT22;20110;53.120;5.786;2023-09-07T03:20:59;13.80;99.90
33803;DHT22;20110;53.120;5.786;2023-09-07T03:23:32;13.70;99.90
33803;DHT22;20110;53.120;5.786;2023-09-07T03:25:59;13.80;99.90
33803;DHT22;20110;53.120;5.786;2023-09-07T03:28:25;13.70;99.90
33803;DHT22;20110;53.120;5.786;2023-09-07T03:30:54;13.70;99.90
33803;DHT22;20110;53.120;5.786;2023-09-07T03:33:21;13.70;99.90
33803;DHT22;20110;53.120;5.786;2023-09-07T03:35:48;13.70;99.90
33803;DHT22;20110;53.120;5.786;2023-09-07T03:38:14;13.70;99.90
33803;DHT22;20110;53.120;5.786;2023-09-07T03:40:41;13.70;99.90
33803;DHT22;20110;53.120;5.786;2023-09-07T03:43:07;13.60;99.90
33803;DHT22;20110;53.120;5.786;2023-09-07T03:45:32;13.60;99.90
33803;DHT22;20110;53.120;5.786;2023-09-07T03:47:58;13.60;99.90
33803;DHT22;20110;53.120;5.786;2023-09-07T03:50:24;13.60;99.90
33803;DHT22;20110;53.120;5.786;2023-09-07T03:52:50;13.50;99.90
33803;DHT22;20110;53.120;5.786;2023-09-07T03:55:16;13.50;99.90
33803;DHT22;20110;53.120;5.786;2023-09-07T03:57:42;13.50;99.90
33803;DHT22;20110;53.120;5.786;2023-09-07T04:00:09;13.50;99.90
33803;DHT22;20110;53.120;5.786;2023-09-07T04:02:35;13.50;99.90
33803;DHT22;20110;53.120;5.786;2023-09-07T04:05:01;13.50;99.90
33803;DHT22;20110;53.120;5.786;2023-09-07T04:07:32;13.50;99.90
33803;DHT22;20110;53.120;5.786;2023-09-07T04:09:58;13.50;99.90
33803;DHT22;20110;53.120;5.786;2023-09-07T04:12:24;13.50;99.90
33803;DHT22;20110;53.120;5.786;2023-09-07T04:14:51;13.50;99.90
33803;DHT22;20110;53.120;5.786;2023-09-07T04:17:17;13.50;99.90
33803;DHT22;20110;53.120;5.786;2023-09-07T04:19:42;13.50;99.90
33803;DHT22;20110;53.120;5.786;2023-09-07T04:22:10;13.50;99.90
33803;DHT22;20110;53.120;5.786;2023-09-07T04:24:36;13.50;99.90
33803;DHT22;20110;53.120;5.786;2023-09-07T04:27:03;13.40;99.90
33803;DHT22;20110;53.120;5.786;2023-09-07T04:29:30;13.50;99.90
33803;DHT22;20110;53.120;5.786;2023-09-07T04:31:56;13.40;99.90
33803;DHT22;20110;53.120;5.786;2023-09-07T04:34:22;13.40;99.90
33803;DHT22;20110;53.120;5.786;2023-09-07T04:36:49;13.40;99.90
33803;DHT22;20110;53.120;5.786;2023-09-07T04:39:19;13.40;99.90
33803;DHT22;20110;53.120;5.786;2023-09-07T04:41:46;13.40;99.90
33803;DHT22;20110;53.120;5.786;2023-09-07T04:44:15;13.30;99.90
33803;DHT22;20110;53.120;5.786;2023-09-07T04:46:41;13.30;99.90
33803;DHT22;20110;53.120;5.786;2023-09-07T04:49:07;13.30;99.90
33803;DHT22;20110;53.120;5.786;2023-09-07T04:51:34;13.30;99.90
33803;DHT22;20110;53.120;5.786;2023-09-07T04:54:00;13.40;99.90
33803;DHT22;20110;53.120;5.786;2023-09-07T04:56:41;13.40;99.90
33803;DHT22;20110;53.120;5.786;2023-09-07T04:59:25;13.40;99.90
33803;DHT22;20110;53.120;5.786;2023-09-07T05:02:04;13.60;99.90
33803;DHT22;20110;53.120;5.786;2023-09-07T05:04:38;13.70;99.90
33803;DHT22;20110;53.120;5.786;2023-09-07T05:07:18;13.80;99.90
33803;DHT22;20110;53.120;5.786;2023-09-07T05:10:01;13.80;99.90
33803;DHT22;20110;53.120;5.786;2023-09-07T05:12:34;13.90;99.90
33803;DHT22;20110;53.120;5.786;2023-09-07T05:15:11;13.90;99.90
33803;DHT22;20110;53.120;5.786;2023-09-07T05:17:40;13.90;99.90
33803;DHT22;20110;53.120;5.786;2023-09-07T05:20:13;14.00;99.90
33803;DHT22;20110;53.120;5.786;2023-09-07T05:22:41;13.90;99.90
33803;DHT22;20110;53.120;5.786;2023-09-07T05:25:22;13.90;99.90
33803;DHT22;20110;53.120;5.786;2023-09-07T05:27:55;13.90;99.90
33803;DHT22;20110;53.120;5.786;2023-09-07T05:30:26;14.00;99.90
33803;DHT22;20110;53.120;5.786;2023-09-07T05:32:56;14.00;99.90
33803;DHT22;20110;53.120;5.786;2023-09-07T05:35:22;14.00;99.90
33803;DHT22;20110;53.120;5.786;2023-09-07T05:37:53;13.90;99.90
33803;DHT22;20110;53.120;5.786;2023-09-07T05:40:29;13.90;99.90
33803;DHT22;20110;53.120;5.786;2023-09-07T05:42:56;13.90;99.90
33803;DHT22;20110;53.120;5.786;2023-09-07T05:45:22;14.00;99.90
33803;DHT22;20110;53.120;5.786;2023-09-07T05:47:47;14.00;99.90
33803;DHT22;20110;53.120;5.786;2023-09-07T05:50:13;14.00;99.90
33803;DHT22;20110;53.120;5.786;2023-09-07T05:52:39;14.10;99.90
33803;DHT22;20110;53.120;5.786;2023-09-07T05:55:06;14.10;99.90
33803;DHT22;20110;53.120;5.786;2023-09-07T05:57:32;14.00;99.90
33803;DHT22;20110;53.120;5.786;2023-09-07T05:59:58;14.10;99.90
33803;DHT22;20110;53.120;5.786;2023-09-07T06:02:24;14.10;99.90
33803;DHT22;20110;53.120;5.786;2023-09-07T06:04:57;14.20;99.90
33803;DHT22;20110;53.120;5.786;2023-09-07T06:07:31;14.20;99.90
33803;DHT22;20110;53.120;5.786;2023-09-07T06:09:57;14.30;99.90
33803;DHT22;20110;53.120;5.786;2023-09-07T06:12:24;14.30;99.90
33803;DHT22;20110;53.120;5.786;2023-09-07T06:14:53;14.40;99.90
33803;DHT22;20110;53.120;5.786;2023-09-07T06:17:21;14.40;99.90
33803;DHT22;20110;53.120;5.786;2023-09-07T06:19:47;14.50;99.90
33803;DHT22;20110;53.120;5.786;2023-09-07T06:22:14;14.60;99.90
33803;DHT22;20110;53.120;5.786;2023-09-07T06:24:44;14.70;99.90
33803;DHT22;20110;53.120;5.786;2023-09-07T06:27:12;14.70;99.90
33803;DHT22;20110;53.120;5.786;2023-09-07T06:29:39;14.80;99.90
33803;DHT22;20110;53.120;5.786;2023-09-07T06:32:05;14.80;99.90
33803;DHT22;20110;53.120;5.786;2023-09-07T06:34:33;14.90;99.90
33803;DHT22;20110;53.120;5.786;2023-09-07T06:37:02;15.00;99.90
33803;DHT22;20110;53.120;5.786;2023-09-07T06:39:48;15.20;99.90
33803;DHT22;20110;53.120;5.786;2023-09-07T06:42:24;15.40;99.90
33803;DHT22;20110;53.120;5.786;2023-09-07T06:44:54;15.50;99.90
33803;DHT22;20110;53.120;5.786;2023-09-07T06:47:34;15.60;99.90
33803;DHT22;20110;53.120;5.786;2023-09-07T06:50:15;15.80;99.90
33803;DHT22;20110;53.120;5.786;2023-09-07T06:52:50;16.00;99.90
33803;DHT22;20110;53.120;5.786;2023-09-07T06:55:34;16.10;99.90
33803;DHT22;20110;53.120;5.786;2023-09-07T06:58:09;16.30;99.90
33803;DHT22;20110;53.120;5.786;2023-09-07T07:00:50;16.50;99.90
33803;DHT22;20110;53.120;5.786;2023-09-07T07:03:33;16.70;99.90
33803;DHT22;20110;53.120;5.786;2023-09-07T07:06:20;16.80;99.90
33803;DHT22;20110;53.120;5.786;2023-09-07T07:08:51;17.00;99.90
33803;DHT22;20110;53.120;5.786;2023-09-07T07:11:25;17.10;99.90
33803;DHT22;20110;53.120;5.786;2023-09-07T07:13:51;17.30;99.90
33803;DHT22;20110;53.120;5.786;2023-09-07T07:16:17;17.40;99.90
33803;DHT22;20110;53.120;5.786;2023-09-07T07:18:43;17.50;99.90
33803;DHT22;20110;53.120;5.786;2023-09-07T07:21:08;17.50;99.90
33803;DHT22;20110;53.120;5.786;2023-09-07T07:23:35;17.50;99.90
33803;DHT22;20110;53.120;5.786;2023-09-07T07:26:01;17.50;99.90
33803;DHT22;20110;53.120;5.786;2023-09-07T07:28:27;17.50;99.90
33803;DHT22;20110;53.120;5.786;2023-09-07T07:30:53;17.60;99.90
33803;DHT22;20110;53.120;5.786;2023-09-07T07:33:19;17.70;99.90
33803;DHT22;20110;53.120;5.786;2023-09-07T07:35:45;17.90;99.90
33803;DHT22;20110;53.120;5.786;2023-09-07T07:38:12;18.10;99.90
33803;DHT22;20110;53.120;5.786;2023-09-07T07:40:39;18.10;99.90
33803;DHT22;20110;53.120;5.786;2023-09-07T07:43:05;18.20;99.90
33803;DHT22;20110;53.120;5.786;2023-09-07T07:45:32;18.40;99.90
33803;DHT22;20110;53.120;5.786;2023-09-07T07:48:02;18.40;99.90
33803;DHT22;20110;53.120;5.786;2023-09-07T07:50:30;18.50;99.90
33803;DHT22;20110;53.120;5.786;2023-09-07T07:52:57;18.60;99.90
33803;DHT22;20110;53.120;5.786;2023-09-07T07:55:23;18.70;99.90
33803;DHT22;20110;53.120;5.786;2023-09-07T07:57:48;18.80;99.90
33803;DHT22;20110;53.120;5.786;2023-09-07T08:00:14;18.80;99.90
33803;DHT22;20110;53.120;5.786;2023-09-07T08:02:40;18.90;99.90
33803;DHT22;20110;53.120;5.786;2023-09-07T08:05:06;19.00;99.90
33803;DHT22;20110;53.120;5.786;2023-09-07T08:07:32;19.10;99.90
33803;DHT22;20110;53.120;5.786;2023-09-07T08:09:58;19.20;99.90
33803;DHT22;20110;53.120;5.786;2023-09-07T08:12:24;19.30;99.90
33803;DHT22;20110;53.120;5.786;2023-09-07T08:14:50;19.40;99.90
33803;DHT22;20110;53.120;5.786;2023-09-07T08:17:15;19.50;99.90
33803;DHT22;20110;53.120;5.786;2023-09-07T08:19:41;19.60;99.90
33803;DHT22;20110;53.120;5.786;2023-09-07T08:22:09;19.60;99.90
33803;DHT22;20110;53.120;5.786;2023-09-07T08:24:35;19.70;99.90
33803;DHT22;20110;53.120;5.786;2023-09-07T08:27:01;19.80;99.90
33803;DHT22;20110;53.120;5.786;2023-09-07T08:29:27;19.90;99.90
33803;DHT22;20110;53.120;5.786;2023-09-07T08:31:53;20.00;99.90
33803;DHT22;20110;53.120;5.786;2023-09-07T08:34:20;20.10;99.90
33803;DHT22;20110;53.120;5.786;2023-09-07T08:36:48;20.20;99.90
33803;DHT22;20110;53.120;5.786;2023-09-07T08:39:15;20.30;99.90
33803;DHT22;20110;53.120;5.786;2023-09-07T08:41:45;20.40;99.90
33803;DHT22;20110;53.120;5.786;2023-09-07T08:44:11;20.40;99.90
33803;DHT22;20110;53.120;5.786;2023-09-07T08:46:40;20.50;99.90
33803;DHT22;20110;53.120;5.786;2023-09-07T08:49:08;20.60;99.90
33803;DHT22;20110;53.120;5.786;2023-09-07T08:51:37;20.70;99.90
33803;DHT22;20110;53.120;5.786;2023-09-07T08:54:04;20.80;99.90
33803;DHT22;20110;53.120;5.786;2023-09-07T08:56:33;20.90;99.90
33803;DHT22;20110;53.120;5.786;2023-09-07T08:58:59;21.00;99.90
33803;DHT22;20110;53.120;5.786;2023-09-07T09:01:24;21.10;99.90
33803;DHT22;20110;53.120;5.786;2023-09-07T09:03:51;21.10;99.90
33803;DHT22;20110;53.120;5.786;2023-09-07T09:06:20;21.20;99.90
33803;DHT22;20110;53.120;5.786;2023-09-07T09:08:48;21.30;99.90
33803;DHT22;20110;53.120;5.786;2023-09-07T09:11:16;21.40;99.90
33803;DHT22;20110;53.120;5.786;2023-09-07T09:13:43;21.50;99.90
33803;DHT22;20110;53.120;5.786;2023-09-07T09:16:10;21.60;99.90
33803;DHT22;20110;53.120;5.786;2023-09-07T09:18:38;21.80;99.90
33803;DHT22;20110;53.120;5.786;2023-09-07T09:21:14;21.90;99.90
33803;DHT22;20110;53.120;5.786;2023-09-07T09:23:41;22.00;99.90
33803;DHT22;20110;53.120;5.786;2023-09-07T09:26:09;22.10;99.90
33803;DHT22;20110;53.120;5.786;2023-09-07T09:28:35;22.10;99.90
33803;DHT22;20110;53.120;5.786;2023-09-07T09:31:02;22.20;99.90
33803;DHT22;20110;53.120;5.786;2023-09-07T09:33:32;22.30;99.90
33803;DHT22;20110;53.120;5.786;2023-09-07T09:35:58;22.40;99.90
33803;DHT22;20110;53.120;5.786;2023-09-07T09:38:25;22.50;99.90
33803;DHT22;20110;53.120;5.786;2023-09-07T09:40:52;22.60;99.90
33803;DHT22;20110;53.120;5.786;2023-09-07T09:43:20;22.70;99.90
33803;DHT22;20110;53.120;5.786;2023-09-07T09:45:48;22.90;99.90
33803;DHT22;20110;53.120;5.786;2023-09-07T09:48:19;22.90;99.90
33803;DHT22;20110;53.120;5.786;2023-09-07T09:50:49;23.40;99.90
33803;DHT22;20110;53.120;5.786;2023-09-07T09:53:16;24.10;99.90
33803;DHT22;20110;53.120;5.786;2023-09-07T09:55:48;24.80;99.90
33803;DHT22;20110;53.120;5.786;2023-09-07T09:58:16;25.40;96.60
33803;DHT22;20110;53.120;5.786;2023-09-07T10:00:49;25.70;92.00
33803;DHT22;20110;53.120;5.786;2023-09-07T10:03:31;26.30;86.70
33803;DHT22;20110;53.120;5.786;2023-09-07T10:06:17;26.60;76.60
33803;DHT22;20110;53.120;5.786;2023-09-07T10:09:02;27.20;80.60
33803;DHT22;20110;53.120;5.786;2023-09-07T10:11:32;27.70;75.40
33803;DHT22;20110;53.120;5.786;2023-09-07T10:14:01;28.10;67.40
33803;DHT22;20110;53.120;5.786;2023-09-07T10:16:50;28.10;62.60
33803;DHT22;20110;53.120;5.786;2023-09-07T10:19:21;28.30;58.70
33803;DHT22;20110;53.120;5.786;2023-09-07T10:21:48;28.60;58.10
33803;DHT22;20110;53.120;5.786;2023-09-07T10:24:30;28.80;56.10
33803;DHT22;20110;53.120;5.786;2023-09-07T10:27:05;29.10;58.30
33803;DHT22;20110;53.120;5.786;2023-09-07T10:29:46;29.20;56.80
33803;DHT22;20110;53.120;5.786;2023-09-07T10:32:19;29.60;55.80
33803;DHT22;20110;53.120;5.786;2023-09-07T10:34:44;30.20;57.50
33803;DHT22;20110;53.120;5.786;2023-09-07T10:37:11;30.50;57.30
33803;DHT22;20110;53.120;5.786;2023-09-07T10:39:42;30.70;51.50
33803;DHT22;20110;53.120;5.786;2023-09-07T10:42:25;30.40;49.40
33803;DHT22;20110;53.120;5.786;2023-09-07T10:44:52;30.40;48.00
33803;DHT22;20110;53.120;5.786;2023-09-07T10:47:18;30.60;46.70
33803;DHT22;20110;53.120;5.786;2023-09-07T10:49:45;30.40;43.40
33803;DHT22;20110;53.120;5.786;2023-09-07T10:52:11;31.00;47.00
33803;DHT22;20110;53.120;5.786;2023-09-07T10:54:38;31.40;43.60
33803;DHT22;20110;53.120;5.786;2023-09-07T10:57:14;31.80;42.20
33803;DHT22;20110;53.120;5.786;2023-09-07T10:59:46;31.30;37.10
33803;DHT22;20110;53.120;5.786;2023-09-07T11:02:11;31.40;40.10
33803;DHT22;20110;53.120;5.786;2023-09-07T11:04:37;31.70;38.30
33803;DHT22;20110;53.120;5.786;2023-09-07T11:07:03;31.60;37.50
33803;DHT22;20110;53.120;5.786;2023-09-07T11:09:30;31.50;35.30
33803;DHT22;20110;53.120;5.786;2023-09-07T11:11:57;31.60;35.70
33803;DHT22;20110;53.120;5.786;2023-09-07T11:14:29;31.10;33.30
33803;DHT22;20110;53.120;5.786;2023-09-07T11:16:56;31.70;37.30
33803;DHT22;20110;53.120;5.786;2023-09-07T11:19:22;31.10;32.60
33803;DHT22;20110;53.120;5.786;2023-09-07T11:21:48;31.30;34.80
33803;DHT22;20110;53.120;5.786;2023-09-07T11:24:14;31.40;34.40
33803;DHT22;20110;53.120;5.786;2023-09-07T11:26:44;32.00;35.30
33803;DHT22;20110;53.120;5.786;2023-09-07T11:29:14;32.20;34.00
33803;DHT22;20110;53.120;5.786;2023-09-07T11:31:41;32.00;32.60
33803;DHT22;20110;53.120;5.786;2023-09-07T11:34:14;32.40;30.70
33803;DHT22;20110;53.120;5.786;2023-09-07T11:36:41;32.10;30.70
33803;DHT22;20110;53.120;5.786;2023-09-07T11:39:08;32.10;30.40
33803;DHT22;20110;53.120;5.786;2023-09-07T11:41:44;32.00;31.20
33803;DHT22;20110;53.120;5.786;2023-09-07T11:44:11;31.90;33.00
33803;DHT22;20110;53.120;5.786;2023-09-07T11:46:37;31.90;32.00
33803;DHT22;20110;53.120;5.786;2023-09-07T11:49:05;32.20;31.80
33803;DHT22;20110;53.120;5.786;2023-09-07T11:51:31;32.20;30.50
33803;DHT22;20110;53.120;5.786;2023-09-07T11:53:58;31.90;29.80
33803;DHT22;20110;53.120;5.786;2023-09-07T11:56:24;31.80;30.20
33803;DHT22;20110;53.120;5.786;2023-09-07T11:58:50;32.20;30.60
33803;DHT22;20110;53.120;5.786;2023-09-07T12:01:16;32.30;30.60
33803;DHT22;20110;53.120;5.786;2023-09-07T12:03:45;32.20;30.70
33803;DHT22;20110;53.120;5.786;2023-09-07T12:06:11;32.40;29.50
33803;DHT22;20110;53.120;5.786;2023-09-07T12:08:37;32.40;28.90
33803;DHT22;20110;53.120;5.786;2023-09-07T12:11:04;32.20;29.20
33803;DHT22;20110;53.120;5.786;2023-09-07T12:13:30;32.40;29.60
33803;DHT22;20110;53.120;5.786;2023-09-07T12:15:56;32.40;29.00
33803;DHT22;20110;53.120;5.786;2023-09-07T12:18:22;32.10;28.00
33803;DHT22;20110;53.120;5.786;2023-09-07T12:20:49;31.90;28.70
33803;DHT22;20110;53.120;5.786;2023-09-07T12:23:15;31.90;28.70
33803;DHT22;20110;53.120;5.786;2023-09-07T12:25:40;31.70;27.50
33803;DHT22;20110;53.120;5.786;2023-09-07T12:28:06;32.20;27.30
33803;DHT22;20110;53.120;5.786;2023-09-07T12:30:33;32.00;27.20
33803;DHT22;20110;53.120;5.786;2023-09-07T12:32:59;32.20;26.60
33803;DHT22;20110;53.120;5.786;2023-09-07T12:35:24;32.20;26.60
33803;DHT22;20110;53.120;5.786;2023-09-07T12:37:50;32.10;26.20
33803;DHT22;20110;53.120;5.786;2023-09-07T12:40:16;31.90;27.30
33803;DHT22;20110;53.120;5.786;2023-09-07T12:42:43;32.00;25.90
33803;DHT22;20110;53.120;5.786;2023-09-07T12:45:09;31.70;26.10
33803;DHT22;20110;53.120;5.786;2023-09-07T12:47:37;31.60;27.10
33803;DHT22;20110;53.120;5.786;2023-09-07T12:50:04;31.90;27.10
33803;DHT22;20110;53.120;5.786;2023-09-07T12:52:31;31.90;25.60
33803;DHT22;20110;53.120;5.786;2023-09-07T12:54:57;31.80;26.40
33803;DHT22;20110;53.120;5.786;2023-09-07T12:57:22;31.90;26.50
33803;DHT22;20110;53.120;5.786;2023-09-07T12:59:49;31.50;25.50
33803;DHT22;20110;53.120;5.786;2023-09-07T13:02:14;31.60;25.50
33803;DHT22;20110;53.120;5.786;2023-09-07T13:04:40;31.40;26.20
33803;DHT22;20110;53.120;5.786;2023-09-07T13:07:06;31.90;27.80
33803;DHT22;20110;53.120;5.786;2023-09-07T13:09:32;32.00;27.30
33803;DHT22;20110;53.120;5.786;2023-09-07T13:11:58;32.00;28.50
33803;DHT22;20110;53.120;5.786;2023-09-07T13:14:23;32.20;28.40
33803;DHT22;20110;53.120;5.786;2023-09-07T13:16:49;31.80;25.60
33803;DHT22;20110;53.120;5.786;2023-09-07T13:19:16;31.50;25.40
33803;DHT22;20110;53.120;5.786;2023-09-07T13:21:42;31.50;25.50
33803;DHT22;20110;53.120;5.786;2023-09-07T13:24:08;31.50;27.40
33803;DHT22;20110;53.120;5.786;2023-09-07T13:26:34;31.50;25.00
33803;DHT22;20110;53.120;5.786;2023-09-07T13:28:59;31.30;26.90
33803;DHT22;20110;53.120;5.786;2023-09-07T13:31:25;31.00;24.50
33803;DHT22;20110;53.120;5.786;2023-09-07T13:33:51;31.00;25.30
33803;DHT22;20110;53.120;5.786;2023-09-07T13:36:17;30.80;25.10
33803;DHT22;20110;53.120;5.786;2023-09-07T13:38:42;30.70;26.40
33803;DHT22;20110;53.120;5.786;2023-09-07T13:41:09;30.40;25.00
33803;DHT22;20110;53.120;5.786;2023-09-07T13:43:35;30.60;26.60
33803;DHT22;20110;53.120;5.786;2023-09-07T13:46:01;30.70;28.10
33803;DHT22;20110;53.120;5.786;2023-09-07T13:48:26;30.80;27.70
33803;DHT22;20110;53.120;5.786;2023-09-07T13:50:52;30.80;28.30
33803;DHT22;20110;53.120;5.786;2023-09-07T13:53:18;30.60;28.20
33803;DHT22;20110;53.120;5.786;2023-09-07T13:55:44;30.50;27.90
33803;DHT22;20110;53.120;5.786;2023-09-07T13:58:11;30.70;28.80
33803;DHT22;20110;53.120;5.786;2023-09-07T14:00:37;30.40;29.50
33803;DHT22;20110;53.120;5.786;2023-09-07T14:03:04;30.40;28.90
33803;DHT22;20110;53.120;5.786;2023-09-07T14:05:31;30.50;29.10
33803;DHT22;20110;53.120;5.786;2023-09-07T14:07:56;30.50;28.90
33803;DHT22;20110;53.120;5.786;2023-09-07T14:10:22;30.50;29.20
33803;DHT22;20110;53.120;5.786;2023-09-07T14:12:48;30.40;28.70
33803;DHT22;20110;53.120;5.786;2023-09-07T14:15:14;30.30;26.70
33803;DHT22;20110;53.120;5.786;2023-09-07T14:17:40;30.20;26.50
33803;DHT22;20110;53.120;5.786;2023-09-07T14:20:06;30.30;27.00
33803;DHT22;20110;53.120;5.786;2023-09-07T14:22:32;30.20;25.20
33803;DHT22;20110;53.120;5.786;2023-09-07T14:24:58;30.10;23.30
33803;DHT22;20110;53.120;5.786;2023-09-07T14:27:24;30.10;23.20
33803;DHT22;20110;53.120;5.786;2023-09-07T14:29:52;29.90;24.20
33803;DHT22;20110;53.120;5.786;2023-09-07T14:32:17;29.70;24.10
33803;DHT22;20110;53.120;5.786;2023-09-07T14:34:43;29.60;23.80
33803;DHT22;20110;53.120;5.786;2023-09-07T14:37:09;29.70;24.00
33803;DHT22;20110;53.120;5.786;2023-09-07T14:39:35;29.70;23.50
33803;DHT22;20110;53.120;5.786;2023-09-07T14:42:01;29.80;23.10
33803;DHT22;20110;53.120;5.786;2023-09-07T14:44:28;29.60;22.50
33803;DHT22;20110;53.120;5.786;2023-09-07T14:46:55;29.60;23.30
33803;DHT22;20110;53.120;5.786;2023-09-07T14:49:21;29.60;24.30
33803;DHT22;20110;53.120;5.786;2023-09-07T14:51:47;29.60;24.50
33803;DHT22;20110;53.120;5.786;2023-09-07T14:54:12;29.40;23.20
33803;DHT22;20110;53.120;5.786;2023-09-07T14:56:38;29.30;23.50
33803;DHT22;20110;53.120;5.786;2023-09-07T14:59:05;29.40;25.00
33803;DHT22;20110;53.120;5.786;2023-09-07T15:01:32;29.20;24.30
33803;DHT22;20110;53.120;5.786;2023-09-07T15:03:58;29.20;25.10
33803;DHT22;20110;53.120;5.786;2023-09-07T15:06:24;29.30;25.50
33803;DHT22;20110;53.120;5.786;2023-09-07T15:08:49;29.20;26.00
33803;DHT22;20110;53.120;5.786;2023-09-07T15:11:16;29.00;25.30
33803;DHT22;20110;53.120;5.786;2023-09-07T15:13:42;29.10;26.20
33803;DHT22;20110;53.120;5.786;2023-09-07T15:16:07;29.00;26.80
33803;DHT22;20110;53.120;5.786;2023-09-07T15:18:34;28.90;27.70
33803;DHT22;20110;53.120;5.786;2023-09-07T15:21:00;28.80;28.30
33803;DHT22;20110;53.120;5.786;2023-09-07T15:23:26;28.80;28.80
33803;DHT22;20110;53.120;5.786;2023-09-07T15:25:53;28.90;30.70
33803;DHT22;20110;53.120;5.786;2023-09-07T15:28:20;28.90;30.20
33803;DHT22;20110;53.120;5.786;2023-09-07T15:30:46;28.90;31.30
33803;DHT22;20110;53.120;5.786;2023-09-07T15:33:11;28.90;32.00